Time;durP1;ratioP1;P1;durP2;ratioP2;P2;SDS_P1;SDS_P2;PMS_P1;PMS_P2;Temp;Humidity;BMP_temperature;BMP_pressure;BME280_temperature;BME280_humidity;BME280_pressure;Samples;Min_cycle;Max_cycle;Signal;HPM_P1;HPM_P2
2022/03/09 00:00:59;;;;;;;;;;;;;;;22.43;18.74;97822.34;5077521;28;996;-72
2022/03/09 00:03:25;;;;;;;;;;;;;;;22.33;19.14;97819.41;5077251;28;937;-72
2022/03/09 00:05:50;;;;;;;;;;;;;;;22.19;19.06;97822.69;5077345;28;1041;-72
2022/03/09 00:08:16;;;;;;;;;;;;;;;22.58;18.61;97809.28;5076630;28;927;-72
2022/03/09 00:10:41;;;;;;;;;;;;;;;22.47;18.85;97803.97;5076588;28;1172;-72
2022/03/09 00:13:07;;;;;;;;;;;;;;;22.12;19.28;97810.78;5076830;28;890;-72
2022/03/09 00:15:32;;;;;;;;;;;;;;;22.54;18.84;97802.97;5077029;28;1085;-72
2022/03/09 00:17:58;;;;;;;;;;;;;;;22.28;18.99;97808.66;5076923;28;1975;-72
2022/03/09 00:20:23;;;;;;;;;;;;;;;22.08;19.36;97805.22;5014602;28;1126;-72
2022/03/09 00:22:49;;;;;;;;;;;;;;;22.01;19.55;97799.75;5014947;28;1028;-72
2022/03/09 00:25:14;;;;;;;;;;;;;;;22.10;19.23;97806.38;5015024;28;1221;-72
2022/03/09 00:27:40;;;;;;;;;;;;;;;21.92;19.64;97808.16;5014872;28;989;-72
2022/03/09 00:30:05;;;;;;;;;;;;;;;22.34;18.97;97798.31;5014478;28;1054;-72
2022/03/09 00:32:31;;;;;;;;;;;;;;;22.59;18.81;97802.38;5015032;28;1014;-72
2022/03/09 00:34:56;;;;;;;;;;;;;;;22.38;18.79;97795.34;5014565;28;919;-72
2022/03/09 00:37:22;;;;;;;;;;;;;;;22.20;19.33;97801.63;5014394;28;1906;-72
2022/03/09 00:39:47;;;;;;;;;;;;;;;22.22;19.23;97787.78;5014861;28;1008;-72
2022/03/09 00:42:13;;;;;;;;;;;;;;;22.18;19.04;97798.44;5014775;28;1018;-72
2022/03/09 00:44:38;;;;;;;;;;;;;;;22.33;19.05;97788.25;5014656;28;1086;-72
2022/03/09 00:47:04;;;;;;;;;;;;;;;22.32;19.08;97802.84;4994865;28;976;-72
2022/03/09 00:49:29;;;;;;;;;;;;;;;22.26;19.11;97794.13;4994908;28;957;-72
2022/03/09 00:51:55;;;;;;;;;;;;;;;21.89;19.65;97797.72;5023515;28;1047;-72
2022/03/09 00:54:20;;;;;;;;;;;;;;;22.22;19.34;97792.66;5033911;28;947;-72
2022/03/09 00:56:46;;;;;;;;;;;;;;;22.12;19.51;97788.91;5033855;28;1902;-72
2022/03/09 00:59:11;;;;;;;;;;;;;;;22.30;18.91;97789.13;5034027;28;1040;-72
2022/03/09 01:01:37;;;;;;;;;;;;;;;22.31;18.95;97785.06;5034187;28;986;-72
2022/03/09 01:04:02;;;;;;;;;;;;;;;22.25;19.08;97792.53;5034432;28;974;-72
2022/03/09 01:06:28;;;;;;;;;;;;;;;22.29;19.30;97790.38;5034004;28;1060;-72
2022/03/09 01:08:53;;;;;;;;;;;;;;;22.32;18.90;97786.63;5034293;28;1094;-72
2022/03/09 01:11:19;;;;;;;;;;;;;;;22.47;18.74;97786.16;5034142;28;1086;-72
2022/03/09 01:13:44;;;;;;;;;;;;;;;22.25;19.28;97784.03;5034131;28;1005;-72
2022/03/09 01:16:10;;;;;;;;;;;;;;;22.76;18.54;97781.13;5034040;28;1066;-73
2022/03/09 01:18:35;;;;;;;;;;;;;;;22.84;18.39;97782.44;5064732;28;1989;-72
2022/03/09 01:21:01;;;;;;;;;;;;;;;22.46;19.03;97774.03;5075205;28;1241;-73
2022/03/09 01:23:26;;;;;;;;;;;;;;;22.60;18.67;97784.09;5075883;28;993;-72
2022/03/09 01:25:52;;;;;;;;;;;;;;;22.45;18.93;97771.66;5074906;28;993;-72
2022/03/09 01:28:18;;;;;;;;;;;;;;;22.59;18.67;97783.31;5075243;28;916;-72
2022/03/09 01:30:43;;;;;;;;;;;;;;;22.27;18.89;97773.03;5057385;28;982;-72
2022/03/09 01:33:09;;;;;;;;;;;;;;;22.24;19.13;97773.97;5076972;28;957;-72
2022/03/09 01:35:34;;;;;;;;;;;;;;;22.36;19.12;97769.50;5043522;28;1040;-72
2022/03/09 01:38:00;;;;;;;;;;;;;;;22.17;19.28;97777.00;5078608;28;1910;-72
2022/03/09 01:40:25;;;;;;;;;;;;;;;22.28;19.22;97776.69;5078316;28;1026;-72
2022/03/09 01:42:51;;;;;;;;;;;;;;;22.51;18.64;97775.50;5078664;28;959;-72
2022/03/09 01:45:18;;;;;;;;;;;;;;;22.05;19.34;97777.78;5043366;28;977;-72
2022/03/09 01:47:44;;;;;;;;;;;;;;;21.79;19.75;97782.66;5078623;28;942;-72
2022/03/09 01:50:09;;;;;;;;;;;;;;;22.09;19.25;97772.81;5078424;28;1058;-72
2022/03/09 01:52:35;;;;;;;;;;;;;;;22.00;19.46;97773.47;5078155;28;1216;-72
2022/03/09 01:55:01;;;;;;;;;;;;;;;22.47;18.98;97772.00;5078432;28;910;-72
2022/03/09 01:57:26;;;;;;;;;;;;;;;22.30;18.70;97774.97;5078699;28;1976;-72
2022/03/09 01:59:52;;;;;;;;;;;;;;;22.06;19.28;97776.53;5059445;28;1398;-72
2022/03/09 02:02:17;;;;;;;;;;;;;;;22.29;18.88;97770.56;5078470;28;965;-72
2022/03/09 02:04:44;;;;;;;;;;;;;;;22.30;18.89;97774.97;5078388;28;991;-72
2022/03/09 02:07:10;;;;;;;;;;;;;;;22.33;18.83;97776.09;5078243;28;919;-72
2022/03/09 02:09:41;;;;;;;;;;;;;;;22.52;18.78;97774.25;5077941;28;953;-72
2022/03/09 02:12:07;;;;;;;;;;;;;;;21.68;19.83;97776.53;5078438;28;906;-72
2022/03/09 02:14:36;;;;;;;;;;;;;;;22.55;19.00;97770.50;5077862;28;920;-72
2022/03/09 02:17:03;;;;;;;;;;;;;;;22.07;19.11;97773.25;5077581;28;1902;-72
2022/03/09 02:19:28;;;;;;;;;;;;;;;22.36;19.13;97781.63;5077933;28;1093;-72
2022/03/09 02:22:17;;;;;;;;;;;;;;;22.00;19.48;97775.53;5036562;28;1200352;-72
2022/03/09 02:24:42;;;;;;;;;;;;;;;22.74;18.78;97777.94;4997428;28;1037;-72
2022/03/09 02:27:08;;;;;;;;;;;;;;;22.14;19.39;97783.59;4997245;28;1079;-72
2022/03/09 02:29:33;;;;;;;;;;;;;;;21.83;19.55;97789.78;4997209;28;1093;-72
2022/03/09 02:32:00;;;;;;;;;;;;;;;21.84;19.43;97785.72;4997068;28;987;-72
2022/03/09 02:34:25;;;;;;;;;;;;;;;22.36;19.19;97780.84;4997216;28;1121;-72
2022/03/09 02:36:51;;;;;;;;;;;;;;;22.33;19.13;97776.91;4997026;28;1922;-73
2022/03/09 02:39:17;;;;;;;;;;;;;;;22.54;18.95;97777.44;4980474;28;1202;-72
2022/03/09 02:41:42;;;;;;;;;;;;;;;22.26;19.09;97779.94;4997027;28;1110;-72
2022/03/09 02:44:08;;;;;;;;;;;;;;;22.15;19.25;97776.69;4996777;28;972;-72
2022/03/09 02:46:33;;;;;;;;;;;;;;;22.28;19.05;97780.31;4996606;28;1014;-72
2022/03/09 02:48:58;;;;;;;;;;;;;;;22.47;18.91;97777.66;4996531;28;1041;-72
2022/03/09 02:51:24;;;;;;;;;;;;;;;22.94;18.49;97768.38;4996895;28;1069;-72
2022/03/09 02:53:49;;;;;;;;;;;;;;;22.43;18.91;97774.16;4996449;28;994;-72
2022/03/09 02:56:15;;;;;;;;;;;;;;;22.68;18.63;97771.25;4996810;28;929;-72
2022/03/09 02:58:42;;;;;;;;;;;;;;;22.65;18.64;97780.69;4996820;28;1978;-72
2022/03/09 03:01:07;;;;;;;;;;;;;;;22.42;19.02;97769.72;5018852;28;973;-72
2022/03/09 03:03:33;;;;;;;;;;;;;;;22.23;19.27;97771.59;5078520;28;1001;-72
2022/03/09 03:05:58;;;;;;;;;;;;;;;22.31;18.95;97768.03;5077677;28;946;-72
2022/03/09 03:08:24;;;;;;;;;;;;;;;22.33;18.93;97776.91;5078287;28;973;-72
2022/03/09 03:10:50;;;;;;;;;;;;;;;22.36;19.03;97775.97;5077949;28;995;-72
2022/03/09 03:13:15;;;;;;;;;;;;;;;22.39;18.79;97774.28;5078298;28;899;-72
2022/03/09 03:15:41;;;;;;;;;;;;;;;22.24;19.24;97773.97;5077837;28;1122;-72
2022/03/09 03:18:06;;;;;;;;;;;;;;;22.59;18.76;97774.03;5077742;28;1969;-72
2022/03/09 03:20:31;;;;;;;;;;;;;;;22.86;18.25;97774.28;5077609;28;1080;-72
2022/03/09 03:22:57;;;;;;;;;;;;;;;22.31;18.95;97785.06;5077738;28;1182;-72
2022/03/09 03:25:22;;;;;;;;;;;;;;;22.12;19.26;97777.56;5077663;28;913;-72
2022/03/09 03:27:48;;;;;;;;;;;;;;;22.48;18.67;97776.41;5077578;28;968;-72
2022/03/09 03:30:13;;;;;;;;;;;;;;;22.57;18.71;97779.34;5077956;28;1047;-72
2022/03/09 03:32:39;;;;;;;;;;;;;;;22.20;19.31;97780.97;5077536;28;925;-72
2022/03/09 03:35:04;;;;;;;;;;;;;;;22.26;19.42;97782.00;5077477;28;955;-72
2022/03/09 03:37:30;;;;;;;;;;;;;;;22.21;19.21;97777.69;5077562;28;1898;-72
2022/03/09 03:39:56;;;;;;;;;;;;;;;22.33;18.72;97776.91;5077448;28;963;-72
2022/03/09 03:42:21;;;;;;;;;;;;;;;22.40;18.68;97775.88;5077494;28;1029;-72
2022/03/09 03:44:47;;;;;;;;;;;;;;;22.22;19.12;97776.44;5077141;28;940;-72
2022/03/09 03:47:12;;;;;;;;;;;;;;;22.61;18.91;97774.34;5077245;28;999;-72
2022/03/09 03:49:37;;;;;;;;;;;;;;;21.95;19.43;97767.59;5076936;28;1064;-72
2022/03/09 03:52:03;;;;;;;;;;;;;;;21.81;19.34;97717.84;5077142;28;942;-72
2022/03/09 03:54:29;;;;;;;;;;;;;;;22.49;18.96;97778.00;5076785;28;930;-73
2022/03/09 03:56:54;;;;;;;;;;;;;;;22.04;19.55;97776.19;5076674;28;1957;-72
2022/03/09 03:59:19;;;;;;;;;;;;;;;22.46;19.01;97779.69;5076792;28;947;-73
2022/03/09 04:01:45;;;;;;;;;;;;;;;22.18;19.34;97781.44;5076817;28;895;-72
2022/03/09 04:04:10;;;;;;;;;;;;;;;22.72;18.63;97783.28;5077813;28;964;-72
2022/03/09 04:06:36;;;;;;;;;;;;;;;22.54;18.91;97781.06;5076949;28;973;-72
2022/03/09 04:09:01;;;;;;;;;;;;;;;22.08;19.10;97788.22;5041288;28;1070;-72
2022/03/09 04:11:27;;;;;;;;;;;;;;;22.36;19.19;97778.81;5076686;28;898;-72
2022/03/09 04:13:52;;;;;;;;;;;;;;;22.45;18.87;97783.00;5076928;28;910;-72
2022/03/09 04:16:18;;;;;;;;;;;;;;;22.42;18.68;97778.22;5076624;28;921;-72
2022/03/09 04:18:43;;;;;;;;;;;;;;;22.42;18.73;97783.91;5033973;28;1984;-72
2022/03/09 04:21:08;;;;;;;;;;;;;;;22.34;18.82;97784.16;5034339;28;1205;-72
2022/03/09 04:23:34;;;;;;;;;;;;;;;22.18;19.07;97787.13;5034228;28;1041;-72
2022/03/09 04:26:00;;;;;;;;;;;;;;;22.36;18.81;97790.16;5034366;28;1307;-72
2022/03/09 04:28:26;;;;;;;;;;;;;;;22.14;19.21;97783.59;5034258;28;1068;-72
2022/03/09 04:30:51;;;;;;;;;;;;;;;22.48;18.87;97784.91;5034361;28;1051;-72
2022/03/09 04:33:18;;;;;;;;;;;;;;;22.05;19.18;97777.78;5034197;28;1064;-72
2022/03/09 04:35:44;;;;;;;;;;;;;;;22.10;19.23;97783.72;5034531;28;1181;-72
2022/03/09 04:38:09;;;;;;;;;;;;;;;22.31;18.77;97784.25;5034037;28;1910;-72
2022/03/09 04:40:34;;;;;;;;;;;;;;;22.74;18.49;97782.81;5034409;28;1145;-72
2022/03/09 04:43:00;;;;;;;;;;;;;;;22.26;19.13;97779.94;5033871;28;976;-72
2022/03/09 04:45:25;;;;;;;;;;;;;;;22.36;19.03;97781.63;5033870;28;1032;-72
2022/03/09 04:47:51;;;;;;;;;;;;;;;22.47;18.66;97786.16;5033721;28;1107;-72
2022/03/09 04:50:17;;;;;;;;;;;;;;;22.40;18.99;97792.88;5063642;28;985;-72
2022/03/09 04:52:42;;;;;;;;;;;;;;;22.46;18.79;97801.59;5073743;28;974;-72
2022/03/09 04:55:08;;;;;;;;;;;;;;;22.25;18.96;97786.88;5073650;28;967;-72
2022/03/09 04:57:35;;;;;;;;;;;;;;;22.19;19.15;97808.53;5039896;28;1914;-72
2022/03/09 05:00:01;;;;;;;;;;;;;;;22.17;19.29;97796.84;5073712;28;956;-73
2022/03/09 05:02:26;;;;;;;;;;;;;;;21.93;19.36;97799.22;5073750;28;1086;-72
2022/03/09 05:04:52;;;;;;;;;;;;;;;22.45;18.85;97800.00;5073606;28;1056;-72
2022/03/09 05:07:17;;;;;;;;;;;;;;;22.05;19.28;97800.44;5072697;28;1022;-72
2022/03/09 05:09:43;;;;;;;;;;;;;;;22.45;18.75;97805.69;5073885;28;949;-73
2022/03/09 05:12:08;;;;;;;;;;;;;;;22.32;18.76;97797.97;5073679;28;1042;-72
2022/03/09 05:14:34;;;;;;;;;;;;;;;22.77;18.32;97813.91;5073850;28;939;-72
2022/03/09 05:16:59;;;;;;;;;;;;;;;22.48;18.60;97808.38;5040034;28;1914;-72
2022/03/09 05:19:24;;;;;;;;;;;;;;;22.31;18.49;97818.28;5075750;28;940;-72
2022/03/09 05:21:50;;;;;;;;;;;;;;;22.17;18.92;97813.06;5075583;28;1024;-72
2022/03/09 05:24:16;;;;;;;;;;;;;;;22.56;18.75;97815.41;5075859;28;1041;-72
2022/03/09 05:26:42;;;;;;;;;;;;;;;22.08;19.00;97823.00;5075846;28;1126;-72
2022/03/09 05:29:08;;;;;;;;;;;;;;;22.31;18.65;97821.91;5075707;28;973;-72
2022/03/09 05:31:34;;;;;;;;;;;;;;;22.53;18.43;97819.16;5040578;28;1028;-72
2022/03/09 05:33:59;;;;;;;;;;;;;;;22.42;18.65;97834.94;5016640;28;1013;-72
2022/03/09 05:36:25;;;;;;;;;;;;;;;22.47;18.83;97825.84;5033460;28;1922;-72
2022/03/09 05:38:50;;;;;;;;;;;;;;;22.53;18.67;97835.38;5032991;28;1536;-72
2022/03/09 05:41:16;;;;;;;;;;;;;;;22.52;18.60;97830.94;5033282;28;960;-72
2022/03/09 05:43:41;;;;;;;;;;;;;;;22.51;18.64;97832.22;4999980;28;1026;-72
2022/03/09 05:46:09;;;;;;;;;;;;;;;22.40;18.61;97843.91;5033352;28;1101;-72
2022/03/09 05:48:35;;;;;;;;;;;;;;;22.09;19.26;97835.13;5033369;28;983;-72
2022/03/09 05:51:00;;;;;;;;;;;;;;;22.58;18.45;97834.78;5033360;28;950;-72
2022/03/09 05:53:25;;;;;;;;;;;;;;;22.01;19.33;97845.09;5033677;28;1018;-72
2022/03/09 05:55:51;;;;;;;;;;;;;;;22.40;18.70;97848.78;5033197;28;1048;-72
2022/03/09 05:58:16;;;;;;;;;;;;;;;22.19;18.97;97853.09;5033219;28;1898;-72
2022/03/09 06:00:42;;;;;;;;;;;;;;;22.27;18.97;97843.88;5033295;28;1027;-72
2022/03/09 06:03:07;;;;;;;;;;;;;;;22.49;18.83;97851.72;5033039;28;1039;-72
2022/03/09 06:05:33;;;;;;;;;;;;;;;22.55;18.80;97844.22;5064436;28;894;-72
2022/03/09 06:07:58;;;;;;;;;;;;;;;22.40;18.72;97852.41;5056641;28;981;-72
2022/03/09 06:10:25;;;;;;;;;;;;;;;22.12;19.14;97845.59;5075654;28;967;-72
2022/03/09 06:12:51;;;;;;;;;;;;;;;22.48;18.78;97844.44;5075237;28;944;-72
2022/03/09 06:15:17;;;;;;;;;;;;;;;22.62;18.69;97844.78;5075323;28;867;-72
2022/03/09 06:17:46;;;;;;;;;;;;;;;22.33;18.85;97855.47;5075137;28;1979;-72
2022/03/09 06:20:12;;;;;;;;;;;;;;;22.45;18.59;97854.66;5078652;28;1188;-72
2022/03/09 06:22:37;;;;;;;;;;;;;;;22.36;18.77;97861.00;5060653;28;1195;-72
2022/03/09 06:25:03;;;;;;;;;;;;;;;22.47;18.90;97860.66;5078863;28;1041;-72
2022/03/09 06:27:28;;;;;;;;;;;;;;;22.30;18.83;97867.72;5078602;28;983;-72
2022/03/09 06:29:55;;;;;;;;;;;;;;;22.47;18.71;97860.66;5060599;28;1323;-72
2022/03/09 06:32:21;;;;;;;;;;;;;;;22.74;18.53;97851.69;5078778;28;921;-73
2022/03/09 06:34:46;;;;;;;;;;;;;;;23.00;18.06;97857.31;5078820;28;1010;-72
2022/03/09 06:37:12;;;;;;;;;;;;;;;22.77;18.50;97862.13;5078450;28;1901;-72
2022/03/09 06:39:37;;;;;;;;;;;;;;;22.95;18.37;97867.22;5078369;28;1138;-72
2022/03/09 06:42:03;;;;;;;;;;;;;;;22.56;18.58;97874.97;5078256;28;918;-72
2022/03/09 06:44:29;;;;;;;;;;;;;;;22.75;18.31;97870.31;5078813;28;895;-73
2022/03/09 06:46:56;;;;;;;;;;;;;;;22.62;18.75;97861.00;5078724;28;943;-72
2022/03/09 06:49:23;;;;;;;;;;;;;;;22.87;18.28;97866.63;5078515;28;930;-72
2022/03/09 06:51:49;;;;;;;;;;;;;;;22.60;18.67;97864.31;5078371;28;941;-72
2022/03/09 06:54:14;;;;;;;;;;;;;;;22.74;18.47;97863.03;5078221;28;949;-72
2022/03/09 06:56:42;;;;;;;;;;;;;;;22.43;19.05;97873.38;5077873;28;1977;-72
2022/03/09 06:59:08;;;;;;;;;;;;;;;22.17;19.00;97875.41;5059830;28;981;-72
2022/03/09 07:01:33;;;;;;;;;;;;;;;22.64;18.74;97875.53;5058968;28;1080;-72
2022/03/09 07:03:59;;;;;;;;;;;;;;;22.30;18.94;97871.34;5078020;28;926;-72
2022/03/09 07:06:24;;;;;;;;;;;;;;;22.61;18.67;97871.56;5078094;28;956;-72
2022/03/09 07:08:50;;;;;;;;;;;;;;;22.16;19.37;97873.81;5078123;28;952;-72
2022/03/09 07:11:15;;;;;;;;;;;;;;;21.98;19.48;97869.47;5077780;28;1088;-72
2022/03/09 07:13:41;;;;;;;;;;;;;;;22.49;18.75;97869.53;5077858;28;1053;-72
2022/03/09 07:16:06;;;;;;;;;;;;;;;22.36;18.94;97871.56;5077942;28;918;-72
2022/03/09 07:18:32;;;;;;;;;;;;;;;22.65;18.50;97865.78;5077732;28;1987;-72
2022/03/09 07:20:58;;;;;;;;;;;;;;;21.98;19.57;97871.50;5077604;28;1051;-72
2022/03/09 07:23:24;;;;;;;;;;;;;;;22.51;18.73;97874.75;5058840;28;963;-72
2022/03/09 07:25:50;;;;;;;;;;;;;;;22.75;18.71;97863.84;5077658;28;1183;-72
2022/03/09 07:28:15;;;;;;;;;;;;;;;22.39;18.83;97865.00;5077590;28;972;-72
2022/03/09 07:30:41;;;;;;;;;;;;;;;22.65;18.61;97864.97;5076601;28;905;-72
2022/03/09 07:33:06;;;;;;;;;;;;;;;22.70;18.53;97861.56;5077534;28;980;-72
2022/03/09 07:35:32;;;;;;;;;;;;;;;22.51;18.63;97877.56;5077546;28;905;-72
2022/03/09 07:37:57;;;;;;;;;;;;;;;22.58;18.44;97871.66;5077501;28;1977;-72
2022/03/09 07:40:22;;;;;;;;;;;;;;;22.58;18.49;97877.34;5077228;28;1068;-72
2022/03/09 07:42:48;;;;;;;;;;;;;;;22.48;18.91;97867.91;5077530;28;1003;-72
2022/03/09 07:45:14;;;;;;;;;;;;;;;22.61;18.75;97865.09;5037949;28;1214;-72
2022/03/09 07:47:39;;;;;;;;;;;;;;;22.15;19.05;97866.56;5055156;28;1067;-72
2022/03/09 07:50:05;;;;;;;;;;;;;;;22.61;18.46;97870.75;5054880;28;942;-72
2022/03/09 07:52:31;;;;;;;;;;;;;;;22.72;18.48;97868.38;5034834;28;928;-72
2022/03/09 07:54:57;;;;;;;;;;;;;;;22.51;18.53;97867.03;5034747;28;975;-72
2022/03/09 07:57:22;;;;;;;;;;;;;;;22.30;18.97;97860.00;5001743;28;1985;-72
2022/03/09 07:59:48;;;;;;;;;;;;;;;22.51;18.89;97866.22;4995273;28;1029;-72
2022/03/09 08:02:13;;;;;;;;;;;;;;;22.77;18.26;97856.44;4995032;28;996;-72
2022/03/09 08:04:39;;;;;;;;;;;;;;;22.87;18.25;97855.28;4995583;28;997;-72
2022/03/09 08:07:04;;;;;;;;;;;;;;;22.96;18.21;97859.50;4995279;28;965;-72
2022/03/09 08:09:29;;;;;;;;;;;;;;;22.69;18.60;97855.13;4995135;28;958;-72
2022/03/09 08:11:55;;;;;;;;;;;;;;;22.23;19.10;97862.28;4995019;28;979;-72
2022/03/09 08:14:20;;;;;;;;;;;;;;;22.16;19.33;97866.09;4995083;28;971;-72
2022/03/09 08:16:47;;;;;;;;;;;;;;;22.88;18.25;97859.72;5009499;28;1982;-72
2022/03/09 08:19:12;;;;;;;;;;;;;;;22.58;18.87;97863.16;5014596;28;1045;-72
2022/03/09 08:21:38;;;;;;;;;;;;;;;22.32;19.09;97865.22;5014401;28;1234;-72
2022/03/09 08:24:04;;;;;;;;;;;;;;;22.60;18.62;97864.31;5029032;28;967;-72
2022/03/09 08:26:30;;;;;;;;;;;;;;;22.74;18.55;97865.06;5034454;28;989;-72
2022/03/09 08:28:56;;;;;;;;;;;;;;;22.43;18.76;97873.38;5034294;28;935;-72
2022/03/09 08:31:22;;;;;;;;;;;;;;;22.57;18.77;97870.06;5065524;28;1018;-72
2022/03/09 08:33:47;;;;;;;;;;;;;;;22.32;19.09;97877.34;5076374;28;958;-72
2022/03/09 08:36:12;;;;;;;;;;;;;;;22.83;18.43;97871.63;5076468;28;910;-72
2022/03/09 08:38:39;;;;;;;;;;;;;;;22.60;18.48;97869.97;5076582;28;1910;-72
2022/03/09 08:41:04;;;;;;;;;;;;;;;22.22;19.13;97874.84;5076221;28;981;-72
2022/03/09 08:43:29;;;;;;;;;;;;;;;22.49;18.84;97871.56;5076216;28;1028;-72
2022/03/09 08:45:55;;;;;;;;;;;;;;;22.73;18.73;97874.81;5076313;28;885;-72
2022/03/09 08:48:21;;;;;;;;;;;;;;;22.82;18.52;97875.72;5076229;28;883;-72
2022/03/09 08:50:46;;;;;;;;;;;;;;;22.75;18.53;97878.03;5076414;28;878;-72
2022/03/09 08:53:12;;;;;;;;;;;;;;;22.59;18.59;97876.09;5076132;28;960;-73
2022/03/09 08:55:37;;;;;;;;;;;;;;;22.65;18.49;97882.78;5057325;28;977;-72
2022/03/09 08:58:03;;;;;;;;;;;;;;;22.62;18.65;97889.34;5076045;28;1898;-72
2022/03/09 09:00:28;;;;;;;;;;;;;;;22.87;18.45;97877.97;5076438;28;937;-72
2022/03/09 09:02:55;;;;;;;;;;;;;;;23.20;17.93;97872.03;5076079;28;918;-73
2022/03/09 09:05:20;;;;;;;;;;;;;;;22.57;18.76;97892.75;5076142;28;946;-72
2022/03/09 09:07:46;;;;;;;;;;;;;;;22.85;18.01;97886.16;5075812;28;1076;-72
2022/03/09 09:10:11;;;;;;;;;;;;;;;22.34;19.13;97891.88;5076022;28;893;-72
2022/03/09 09:12:37;;;;;;;;;;;;;;;22.35;18.83;97893.44;5075826;28;1045;-73
2022/03/09 09:15:03;;;;;;;;;;;;;;;22.60;18.83;97880.53;5075942;28;913;-72
2022/03/09 09:17:28;;;;;;;;;;;;;;;22.88;18.28;97890.94;5075773;28;1973;-72
2022/03/09 09:19:54;;;;;;;;;;;;;;;22.74;18.29;97891.41;5076067;28;1231;-73
2022/03/09 09:22:19;;;;;;;;;;;;;;;22.69;18.72;97891.97;5075901;28;1030;-72
2022/03/09 09:24:44;;;;;;;;;;;;;;;22.82;18.69;97881.41;5075921;28;976;-72
2022/03/09 09:27:10;;;;;;;;;;;;;;;22.49;19.05;97891.41;5075765;28;1078;-72
2022/03/09 09:29:35;;;;;;;;;;;;;;;22.28;19.10;97892.91;5075982;28;991;-72
2022/03/09 09:32:01;;;;;;;;;;;;;;;22.43;19.07;97888.34;5075884;28;861;-72
2022/03/09 09:34:27;;;;;;;;;;;;;;;22.77;18.55;97893.31;5075693;28;953;-72
2022/03/09 09:36:52;;;;;;;;;;;;;;;22.83;18.65;97887.88;5057145;28;1979;-72
2022/03/09 09:39:18;;;;;;;;;;;;;;;22.43;18.94;97894.00;5075811;28;906;-72
2022/03/09 09:41:48;;;;;;;;;;;;;;;22.77;18.44;97889.69;5075372;28;1183;-72
2022/03/09 09:44:13;;;;;;;;;;;;;;;22.42;18.85;97894.47;5075717;28;1087;-72
2022/03/09 09:46:39;;;;;;;;;;;;;;;22.80;18.73;97894.47;5075575;28;920;-72
2022/03/09 09:49:14;;;;;;;;;;;;;;;22.70;18.59;97902.06;5075548;28;1044;-72
2022/03/09 09:51:40;;;;;;;;;;;;;;;22.42;18.99;97905.81;5056648;28;1053;-72
2022/03/09 09:54:05;;;;;;;;;;;;;;;22.58;18.85;97895.13;5077367;28;913;-73
2022/03/09 09:56:31;;;;;;;;;;;;;;;22.80;18.51;97895.25;5078915;28;977;-72
2022/03/09 09:58:56;;;;;;;;;;;;;;;22.53;18.54;97897.75;5079146;28;1902;-72
2022/03/09 10:01:22;;;;;;;;;;;;;;;22.77;18.28;97898.19;5061671;28;949;-72
2022/03/09 10:03:47;;;;;;;;;;;;;;;22.44;18.80;97900.50;5060045;28;1130;-72
2022/03/09 10:06:13;;;;;;;;;;;;;;;22.64;18.38;97898.22;5078797;28;973;-73
2022/03/09 10:08:39;;;;;;;;;;;;;;;22.81;18.63;97896.84;5037101;28;1047;-72
2022/03/09 10:11:04;;;;;;;;;;;;;;;22.41;19.01;97895.72;5036870;28;967;-72
2022/03/09 10:13:31;;;;;;;;;;;;;;;22.72;18.35;97891.06;5036471;28;983;-73
2022/03/09 10:16:12;;;;;;;;;;;;;;;22.81;18.33;97896.84;5040674;28;2121;-72
2022/03/09 10:18:38;;;;;;;;;;;;;;;22.74;18.32;97899.91;5036803;28;1905;-72
2022/03/09 10:21:13;;;;;;;;;;;;;;;22.98;18.39;97893.88;5036625;28;1102;-72
2022/03/09 10:23:53;;;;;;;;;;;;;;;22.44;18.66;97900.50;4964224;28;1072;-72
2022/03/09 10:26:19;;;;;;;;;;;;;;;22.65;18.46;97894.13;4997112;28;1059;-72
2022/03/09 10:29:13;;;;;;;;;;;;;;;22.32;18.64;97902.06;4980625;28;1051;-72
2022/03/09 10:31:40;;;;;;;;;;;;;;;22.77;18.27;97895.38;4938979;29;1020;-72
2022/03/09 10:34:09;;;;;;;;;;;;;;;22.51;18.63;97900.25;4923273;29;1019;-72
2022/03/09 10:36:35;;;;;;;;;;;;;;;22.60;18.72;97886.19;4938982;29;1907;-73
2022/03/09 10:39:10;;;;;;;;;;;;;;;22.58;18.52;97886.63;4948139;28;953;-72
2022/03/09 10:41:36;;;;;;;;;;;;;;;23.08;17.92;97875.69;4977334;28;1001;-72
2022/03/09 10:44:01;;;;;;;;;;;;;;;22.62;18.29;97875.19;4977514;28;1030;-73
2022/03/09 10:46:27;;;;;;;;;;;;;;;22.59;18.43;97887.44;4977297;28;882;-72
2022/03/09 10:48:52;;;;;;;;;;;;;;;22.88;18.28;97884.47;4977159;28;1072;-72
2022/03/09 10:51:44;;;;;;;;;;;;;;;22.15;19.05;97883.56;4977321;28;960;-73
2022/03/09 10:54:11;;;;;;;;;;;;;;;22.84;18.40;97873.22;4944420;29;1000;-72
2022/03/09 10:56:37;;;;;;;;;;;;;;;22.73;18.61;97872.78;4957999;29;1907;-72
2022/03/09 10:59:09;;;;;;;;;;;;;;;22.65;18.62;97874.28;4957639;29;1066;-72
2022/03/09 11:01:35;;;;;;;;;;;;;;;22.78;18.51;97863.69;4957642;29;1046;-73
2022/03/09 11:04:09;;;;;;;;;;;;;;;22.41;18.94;97878.72;4957541;28;1152;-72
2022/03/09 11:06:35;;;;;;;;;;;;;;;22.73;18.56;97872.78;4957395;29;1028;-72
2022/03/09 11:09:01;;;;;;;;;;;;;;;22.82;18.19;97875.72;4975088;28;1042;-72
2022/03/09 11:11:26;;;;;;;;;;;;;;;22.87;18.20;97877.97;4919207;29;1006;-72
2022/03/09 11:13:52;;;;;;;;;;;;;;;23.08;17.80;97876.50;4919257;29;988;-73
2022/03/09 11:16:17;;;;;;;;;;;;;;;22.22;18.77;97878.47;4919404;29;1062;-72
2022/03/09 11:18:42;;;;;;;;;;;;;;;22.70;18.27;97882.22;4919293;29;1902;-73
2022/03/09 11:21:08;;;;;;;;;;;;;;;22.74;18.14;97873.56;4919059;29;1224;-72
2022/03/09 11:23:34;;;;;;;;;;;;;;;22.51;18.32;97883.25;4919151;29;1045;-73
2022/03/09 11:26:00;;;;;;;;;;;;;;;22.73;18.15;97884.13;4919139;29;957;-72
2022/03/09 11:28:30;;;;;;;;;;;;;;;22.86;18.00;97882.06;4903251;29;1055;-72
2022/03/09 11:31:00;;;;;;;;;;;;;;;22.26;18.64;97879.16;4966718;28;1051;-72
2022/03/09 11:33:44;;;;;;;;;;;;;;;22.47;18.59;97883.34;5015595;28;1093;-73
2022/03/09 11:36:21;;;;;;;;;;;;;;;22.36;18.77;97883.69;5015339;28;948;-73
2022/03/09 11:38:52;;;;;;;;;;;;;;;22.47;18.34;97888.22;5015461;28;1985;-72
2022/03/09 11:41:20;;;;;;;;;;;;;;;21.81;19.41;97891.41;5017516;28;954;-72
2022/03/09 11:43:46;;;;;;;;;;;;;;;22.73;18.22;97884.13;5077265;28;929;-72
2022/03/09 11:46:11;;;;;;;;;;;;;;;22.53;18.19;97881.53;5059253;28;924;-73
2022/03/09 11:48:52;;;;;;;;;;;;;;;22.82;18.20;97887.06;5054877;28;1054;-73
2022/03/09 11:51:18;;;;;;;;;;;;;;;22.63;18.43;97896.63;5054809;28;952;-72
2022/03/09 11:53:44;;;;;;;;;;;;;;;22.84;17.80;97884.56;5018121;28;975;-73
2022/03/09 11:56:22;;;;;;;;;;;;;;;22.22;18.53;97894.69;5018378;28;1068;-73
2022/03/09 11:59:06;;;;;;;;;;;;;;;22.38;18.34;97896.63;5034688;28;2277;-72
2022/03/09 12:01:31;;;;;;;;;;;;;;;22.88;17.92;97881.63;5034603;28;1224;-72
2022/03/09 12:03:57;;;;;;;;;;;;;;;22.88;17.78;97873.91;5014376;28;1018;-73
2022/03/09 12:06:44;;;;;;;;;;;;;;;22.13;18.57;97886.06;5014844;28;1040;-73
2022/03/09 12:09:09;;;;;;;;;;;;;;;22.62;18.25;97895.03;5014634;28;984;-73
2022/03/09 12:11:54;;;;;;;;;;;;;;;22.60;18.28;97894.69;4998581;28;980;-73
2022/03/09 12:14:39;;;;;;;;;;;;;;;22.77;18.05;97898.19;5014638;28;959;-73
2022/03/09 12:17:04;;;;;;;;;;;;;;;22.83;17.96;97893.53;5014550;28;1910;-72
2022/03/09 12:19:30;;;;;;;;;;;;;;;23.08;17.67;97895.56;5023611;28;1133;-72
2022/03/09 12:21:56;;;;;;;;;;;;;;;22.24;18.72;97898.66;5017904;28;1104;-73
2022/03/09 12:24:25;;;;;;;;;;;;;;;22.77;18.12;97890.47;5034310;28;1023;-73
2022/03/09 12:26:51;;;;;;;;;;;;;;;22.54;18.12;97899.38;5034105;28;1015;-72
2022/03/09 12:29:28;;;;;;;;;;;;;;;22.67;17.98;97897.28;5034272;28;986;-73
2022/03/09 12:32:06;;;;;;;;;;;;;;;22.84;17.78;97890.22;5034156;28;934;-72
2022/03/09 12:34:51;;;;;;;;;;;;;;;22.54;18.37;97891.66;5047472;28;861;-73
2022/03/09 12:37:18;;;;;;;;;;;;;;;22.56;17.84;97902.53;5076115;28;1965;-72
2022/03/09 12:39:51;;;;;;;;;;;;;;;22.43;18.16;97904.56;5076386;28;967;-73
2022/03/09 12:42:17;;;;;;;;;;;;;;;22.06;18.37;97902.00;5058564;28;977;-73
2022/03/09 12:44:42;;;;;;;;;;;;;;;22.38;18.28;97902.28;5076417;28;994;-72
2022/03/09 12:47:08;;;;;;;;;;;;;;;22.33;18.16;97898.78;5076235;28;951;-73
2022/03/09 12:49:37;;;;;;;;;;;;;;;22.68;17.76;97904.56;5076245;28;890;-72
2022/03/09 12:52:04;;;;;;;;;;;;;;;22.23;18.07;97908.41;5076273;28;1079;-72
2022/03/09 12:54:48;;;;;;;;;;;;;;;22.40;18.41;97902.66;5076101;28;947;-73
2022/03/09 12:57:15;;;;;;;;;;;;;;;22.75;17.98;97906.38;5075970;28;1967;-72
2022/03/09 12:59:42;;;;;;;;;;;;;;;23.00;17.29;97902.72;5075697;28;928;-73